sensor_id;sensor_type;location;lat;lon;timestamp;temperature;humidity
64034;SHT31;50280;49.864;8.638;2023-01-08T00:02:26;9.67;76.62
64034;SHT31;50280;49.864;8.638;2023-01-08T00:04:58;9.69;75.88
64034;SHT31;50280;49.864;8.638;2023-01-08T00:07:32;9.75;75.50
64034;SHT31;50280;49.864;8.638;2023-01-08T00:10:05;9.76;75.29
64034;SHT31;50280;49.864;8.638;2023-01-08T00:12:38;9.81;74.92
64034;SHT31;50280;49.864;8.638;2023-01-08T00:15:11;9.86;74.36
64034;SHT31;50280;49.864;8.638;2023-01-08T00:17:43;9.90;74.33
64034;SHT31;50280;49.864;8.638;2023-01-08T00:20:16;9.95;74.11
64034;SHT31;50280;49.864;8.638;2023-01-08T00:22:50;10.00;73.71
64034;SHT31;50280;49.864;8.638;2023-01-08T00:25:23;10.04;73.38
64034;SHT31;50280;49.864;8.638;2023-01-08T00:27:55;10.04;73.27
64034;SHT31;50280;49.864;8.638;2023-01-08T00:30:28;10.09;73.21
64034;SHT31;50280;49.864;8.638;2023-01-08T00:33:01;10.07;73.33
64034;SHT31;50280;49.864;8.638;2023-01-08T00:35:33;10.07;73.19
64034;SHT31;50280;49.864;8.638;2023-01-08T00:38:07;10.07;73.31
64034;SHT31;50280;49.864;8.638;2023-01-08T00:40:40;10.12;73.39
64034;SHT31;50280;49.864;8.638;2023-01-08T00:43:12;10.12;73.26
64034;SHT31;50280;49.864;8.638;2023-01-08T00:45:45;10.16;73.30
64034;SHT31;50280;49.864;8.638;2023-01-08T00:48:18;10.17;73.33
64034;SHT31;50280;49.864;8.638;2023-01-08T00:50:51;10.21;73.11
64034;SHT31;50280;49.864;8.638;2023-01-08T00:53:27;10.25;73.09
64034;SHT31;50280;49.864;8.638;2023-01-08T00:56:01;10.30;73.07
64034;SHT31;50280;49.864;8.638;2023-01-08T00:58:39;10.33;73.17
64034;SHT31;50280;49.864;8.638;2023-01-08T01:01:12;10.36;73.26
64034;SHT31;50280;49.864;8.638;2023-01-08T01:03:46;10.37;73.26
64034;SHT31;50280;49.864;8.638;2023-01-08T01:06:18;10.40;73.24
64034;SHT31;50280;49.864;8.638;2023-01-08T01:08:52;10.45;73.05
64034;SHT31;50280;49.864;8.638;2023-01-08T01:11:26;10.51;72.94
64034;SHT31;50280;49.864;8.638;2023-01-08T01:13:59;10.54;72.82
64034;SHT31;50280;49.864;8.638;2023-01-08T01:16:32;10.59;72.71
64034;SHT31;50280;49.864;8.638;2023-01-08T01:19:04;10.62;72.66
64034;SHT31;50280;49.864;8.638;2023-01-08T01:21:37;10.62;72.68
64034;SHT31;50280;49.864;8.638;2023-01-08T01:24:11;10.65;72.74
64034;SHT31;50280;49.864;8.638;2023-01-08T01:26:44;10.69;72.73
64034;SHT31;50280;49.864;8.638;2023-01-08T01:29:16;10.66;72.60
64034;SHT31;50280;49.864;8.638;2023-01-08T01:31:49;10.66;72.57
64034;SHT31;50280;49.864;8.638;2023-01-08T01:34:21;10.64;72.27
64034;SHT31;50280;49.864;8.638;2023-01-08T01:36:54;10.65;72.07
64034;SHT31;50280;49.864;8.638;2023-01-08T01:39:28;10.65;71.99
64034;SHT31;50280;49.864;8.638;2023-01-08T01:42:00;10.64;72.13
64034;SHT31;50280;49.864;8.638;2023-01-08T01:44:39;10.59;72.52
64034;SHT31;50280;49.864;8.638;2023-01-08T01:47:19;10.57;72.88
64034;SHT31;50280;49.864;8.638;2023-01-08T01:50:04;10.51;74.03
64034;SHT31;50280;49.864;8.638;2023-01-08T01:52:46;10.47;75.23
64034;SHT31;50280;49.864;8.638;2023-01-08T01:55:29;10.34;76.54
64034;SHT31;50280;49.864;8.638;2023-01-08T01:58:06;10.21;77.28
64034;SHT31;50280;49.864;8.638;2023-01-08T02:00:45;10.07;78.04
64034;SHT31;50280;49.864;8.638;2023-01-08T02:03:20;9.97;79.10
64034;SHT31;50280;49.864;8.638;2023-01-08T02:06:02;9.87;79.38
64034;SHT31;50280;49.864;8.638;2023-01-08T02:08:53;9.75;79.96
64034;SHT31;50280;49.864;8.638;2023-01-08T02:11:40;9.67;80.34
64034;SHT31;50280;49.864;8.638;2023-01-08T02:14:23;9.62;81.00
64034;SHT31;50280;49.864;8.638;2023-01-08T02:17:09;9.57;81.30
64034;SHT31;50280;49.864;8.638;2023-01-08T02:19:49;9.50;81.70
64034;SHT31;50280;49.864;8.638;2023-01-08T02:22:47;9.44;81.73
64034;SHT31;50280;49.864;8.638;2023-01-08T02:28:57;9.38;82.47
64034;SHT31;50280;49.864;8.638;2023-01-08T02:31:37;9.38;82.80
64034;SHT31;50280;49.864;8.638;2023-01-08T02:34:12;9.37;83.15
64034;SHT31;50280;49.864;8.638;2023-01-08T02:36:46;9.34;83.30
64034;SHT31;50280;49.864;8.638;2023-01-08T02:39:37;9.31;83.52
64034;SHT31;50280;49.864;8.638;2023-01-08T02:42:34;9.28;83.93
64034;SHT31;50280;49.864;8.638;2023-01-08T02:45:26;9.26;83.73
64034;SHT31;50280;49.864;8.638;2023-01-08T02:48:12;9.22;83.39
64034;SHT31;50280;49.864;8.638;2023-01-08T02:50:55;9.22;83.57
64034;SHT31;50280;49.864;8.638;2023-01-08T02:53:40;9.20;83.22
64034;SHT31;50280;49.864;8.638;2023-01-08T02:56:20;9.19;82.87
64034;SHT31;50280;49.864;8.638;2023-01-08T02:59:02;9.20;82.95
64034;SHT31;50280;49.864;8.638;2023-01-08T03:01:39;9.14;82.89
64034;SHT31;50280;49.864;8.638;2023-01-08T03:04:16;9.17;83.11
64034;SHT31;50280;49.864;8.638;2023-01-08T03:06:52;9.13;82.83
64034;SHT31;50280;49.864;8.638;2023-01-08T03:09:25;9.12;82.64
64034;SHT31;50280;49.864;8.638;2023-01-08T03:12:02;9.13;82.97
64034;SHT31;50280;49.864;8.638;2023-01-08T05:13:14;8.75;86.53
64034;SHT31;50280;49.864;8.638;2023-01-08T05:15:46;8.76;86.49
64034;SHT31;50280;49.864;8.638;2023-01-08T05:18:18;8.76;86.89
64034;SHT31;50280;49.864;8.638;2023-01-08T05:20:51;8.75;87.07
64034;SHT31;50280;49.864;8.638;2023-01-08T05:23:23;8.73;87.04
64034;SHT31;50280;49.864;8.638;2023-01-08T05:25:56;8.68;86.75
64034;SHT31;50280;49.864;8.638;2023-01-08T05:28:31;8.69;86.95
64034;SHT31;50280;49.864;8.638;2023-01-08T05:31:04;8.67;86.66
64034;SHT31;50280;49.864;8.638;2023-01-08T05:33:37;8.69;86.64
64034;SHT31;50280;49.864;8.638;2023-01-08T05:36:11;8.68;87.28
64034;SHT31;50280;49.864;8.638;2023-01-08T05:38:44;8.64;87.19
64034;SHT31;50280;49.864;8.638;2023-01-08T05:41:17;8.61;87.33
64034;SHT31;50280;49.864;8.638;2023-01-08T05:43:50;8.61;87.49
64034;SHT31;50280;49.864;8.638;2023-01-08T05:46:23;8.57;87.69
64034;SHT31;50280;49.864;8.638;2023-01-08T05:48:56;8.58;87.90
64034;SHT31;50280;49.864;8.638;2023-01-08T05:51:28;8.51;88.18
64034;SHT31;50280;49.864;8.638;2023-01-08T05:54:01;8.50;88.57
64034;SHT31;50280;49.864;8.638;2023-01-08T05:56:34;8.45;88.48
64034;SHT31;50280;49.864;8.638;2023-01-08T05:59:09;8.47;88.63
64034;SHT31;50280;49.864;8.638;2023-01-08T06:01:42;8.48;88.63
64034;SHT31;50280;49.864;8.638;2023-01-08T06:04:14;8.50;88.59
64034;SHT31;50280;49.864;8.638;2023-01-08T06:06:47;8.45;88.55
64034;SHT31;50280;49.864;8.638;2023-01-08T06:09:19;8.45;88.64
64034;SHT31;50280;49.864;8.638;2023-01-08T06:11:51;8.42;88.86
64034;SHT31;50280;49.864;8.638;2023-01-08T06:14:25;8.38;88.92
64034;SHT31;50280;49.864;8.638;2023-01-08T06:16:58;8.37;89.08
64034;SHT31;50280;49.864;8.638;2023-01-08T06:19:30;8.34;88.97
64034;SHT31;50280;49.864;8.638;2023-01-08T06:22:02;8.34;89.20
64034;SHT31;50280;49.864;8.638;2023-01-08T06:24:35;8.31;89.22
64034;SHT31;50280;49.864;8.638;2023-01-08T06:27:07;8.33;89.30
64034;SHT31;50280;49.864;8.638;2023-01-08T06:29:41;8.29;89.39
64034;SHT31;50280;49.864;8.638;2023-01-08T06:32:14;8.29;89.28
64034;SHT31;50280;49.864;8.638;2023-01-08T06:34:46;8.30;89.35
64034;SHT31;50280;49.864;8.638;2023-01-08T06:37:19;8.31;89.62
64034;SHT31;50280;49.864;8.638;2023-01-08T06:39:51;8.33;89.22
64034;SHT31;50280;49.864;8.638;2023-01-08T06:42:23;8.37;89.08
64034;SHT31;50280;49.864;8.638;2023-01-08T06:44:57;8.36;88.94
64034;SHT31;50280;49.864;8.638;2023-01-08T06:47:31;8.38;89.01
64034;SHT31;50280;49.864;8.638;2023-01-08T06:50:04;8.41;88.64
64034;SHT31;50280;49.864;8.638;2023-01-08T06:52:37;8.45;88.63
64034;SHT31;50280;49.864;8.638;2023-01-08T06:55:10;8.47;88.35
64034;SHT31;50280;49.864;8.638;2023-01-08T06:57:42;8.48;88.82
64034;SHT31;50280;49.864;8.638;2023-01-08T07:00:16;8.47;88.65
64034;SHT31;50280;49.864;8.638;2023-01-08T07:02:49;8.47;88.74
64034;SHT31;50280;49.864;8.638;2023-01-08T07:05:22;8.47;88.92
64034;SHT31;50280;49.864;8.638;2023-01-08T07:07:55;8.42;89.08
64034;SHT31;50280;49.864;8.638;2023-01-08T07:10:27;8.37;89.01
64034;SHT31;50280;49.864;8.638;2023-01-08T07:13:00;8.33;89.23
64034;SHT31;50280;49.864;8.638;2023-01-08T07:15:34;8.29;89.22
64034;SHT31;50280;49.864;8.638;2023-01-08T07:18:08;8.23;89.40
64034;SHT31;50280;49.864;8.638;2023-01-08T07:20:43;8.20;89.64
64034;SHT31;50280;49.864;8.638;2023-01-08T07:23:15;8.14;89.45
64034;SHT31;50280;49.864;8.638;2023-01-08T07:25:48;8.16;89.33
64034;SHT31;50280;49.864;8.638;2023-01-08T07:28:20;8.13;89.27
64034;SHT31;50280;49.864;8.638;2023-01-08T07:30:54;8.14;89.46
64034;SHT31;50280;49.864;8.638;2023-01-08T07:33:26;8.14;89.49
64034;SHT31;50280;49.864;8.638;2023-01-08T07:35:59;8.12;89.57
64034;SHT31;50280;49.864;8.638;2023-01-08T07:38:32;8.10;89.62
64034;SHT31;50280;49.864;8.638;2023-01-08T07:41:04;8.10;89.72
64034;SHT31;50280;49.864;8.638;2023-01-08T07:43:40;8.09;89.72
64034;SHT31;50280;49.864;8.638;2023-01-08T07:46:14;8.07;89.67
64034;SHT31;50280;49.864;8.638;2023-01-08T07:48:47;8.12;89.67
64034;SHT31;50280;49.864;8.638;2023-01-08T07:51:19;8.14;89.72
64034;SHT31;50280;49.864;8.638;2023-01-08T07:53:52;8.16;89.71
64034;SHT31;50280;49.864;8.638;2023-01-08T07:56:24;8.16;89.75
64034;SHT31;50280;49.864;8.638;2023-01-08T07:58:57;8.19;89.82
64034;SHT31;50280;49.864;8.638;2023-01-08T08:01:30;8.22;89.79
64034;SHT31;50280;49.864;8.638;2023-01-08T08:04:03;8.23;89.81
64034;SHT31;50280;49.864;8.638;2023-01-08T08:06:35;8.20;89.96
64034;SHT31;50280;49.864;8.638;2023-01-08T08:09:08;8.17;90.06
64034;SHT31;50280;49.864;8.638;2023-01-08T08:11:40;8.22;90.17
64034;SHT31;50280;49.864;8.638;2023-01-08T08:14:13;8.20;90.32
64034;SHT31;50280;49.864;8.638;2023-01-08T08:16:47;8.19;90.28
64034;SHT31;50280;49.864;8.638;2023-01-08T08:19:19;8.17;90.41
64034;SHT31;50280;49.864;8.638;2023-01-08T08:21:52;8.17;90.55
64034;SHT31;50280;49.864;8.638;2023-01-08T08:24:24;8.14;90.60
64034;SHT31;50280;49.864;8.638;2023-01-08T08:26:57;8.14;90.58
64034;SHT31;50280;49.864;8.638;2023-01-08T08:29:29;8.13;90.55
64034;SHT31;50280;49.864;8.638;2023-01-08T08:32:03;8.16;90.68
64034;SHT31;50280;49.864;8.638;2023-01-08T08:34:36;8.16;90.77
64034;SHT31;50280;49.864;8.638;2023-01-08T08:37:08;8.13;90.88
64034;SHT31;50280;49.864;8.638;2023-01-08T08:39:41;8.12;90.99
64034;SHT31;50280;49.864;8.638;2023-01-08T08:42:13;8.12;91.06
64034;SHT31;50280;49.864;8.638;2023-01-08T08:44:46;8.12;91.15
64034;SHT31;50280;49.864;8.638;2023-01-08T08:47:20;8.10;91.12
64034;SHT31;50280;49.864;8.638;2023-01-08T08:49:52;8.12;91.29
64034;SHT31;50280;49.864;8.638;2023-01-08T08:52:24;8.10;91.37
64034;SHT31;50280;49.864;8.638;2023-01-08T08:54:57;8.09;91.41
64034;SHT31;50280;49.864;8.638;2023-01-08T08:57:30;8.10;91.61
64034;SHT31;50280;49.864;8.638;2023-01-08T09:00:03;8.10;91.64
64034;SHT31;50280;49.864;8.638;2023-01-08T09:02:37;8.06;91.79
64034;SHT31;50280;49.864;8.638;2023-01-08T09:05:10;8.07;91.84
64034;SHT31;50280;49.864;8.638;2023-01-08T09:07:43;8.07;91.83
64034;SHT31;50280;49.864;8.638;2023-01-08T09:10:15;8.07;91.94
64034;SHT31;50280;49.864;8.638;2023-01-08T09:12:48;8.09;92.04
64034;SHT31;50280;49.864;8.638;2023-01-08T09:15:21;8.06;92.07
64034;SHT31;50280;49.864;8.638;2023-01-08T09:17:56;8.06;92.19
64034;SHT31;50280;49.864;8.638;2023-01-08T09:20:29;8.03;92.28
64034;SHT31;50280;49.864;8.638;2023-01-08T09:23:02;8.07;92.36
64034;SHT31;50280;49.864;8.638;2023-01-08T09:25:35;8.03;92.51
64034;SHT31;50280;49.864;8.638;2023-01-08T09:28:09;8.07;92.65
64034;SHT31;50280;49.864;8.638;2023-01-08T09:30:43;8.07;92.66
64034;SHT31;50280;49.864;8.638;2023-01-08T09:33:17;8.06;92.73
64034;SHT31;50280;49.864;8.638;2023-01-08T09:35:49;8.07;92.70
64034;SHT31;50280;49.864;8.638;2023-01-08T09:38:22;8.10;92.73
64034;SHT31;50280;49.864;8.638;2023-01-08T09:40:57;8.10;92.66
64034;SHT31;50280;49.864;8.638;2023-01-08T09:43:38;8.14;92.70
64034;SHT31;50280;49.864;8.638;2023-01-08T09:46:17;8.16;92.70
64034;SHT31;50280;49.864;8.638;2023-01-08T09:49:00;8.17;92.64
64034;SHT31;50280;49.864;8.638;2023-01-08T09:51:39;8.17;92.63
64034;SHT31;50280;49.864;8.638;2023-01-08T09:54:14;8.20;92.42
64034;SHT31;50280;49.864;8.638;2023-01-08T09:56:48;8.23;92.49
64034;SHT31;50280;49.864;8.638;2023-01-08T09:59:21;8.24;92.39
64034;SHT31;50280;49.864;8.638;2023-01-08T10:01:53;8.24;92.42
64034;SHT31;50280;49.864;8.638;2023-01-08T10:04:28;8.27;92.44
64034;SHT31;50280;49.864;8.638;2023-01-08T10:07:12;8.27;92.38
64034;SHT31;50280;49.864;8.638;2023-01-08T10:09:50;8.29;92.39
64034;SHT31;50280;49.864;8.638;2023-01-08T10:12:26;8.30;92.33
64034;SHT31;50280;49.864;8.638;2023-01-08T10:15:02;8.31;92.19
64034;SHT31;50280;49.864;8.638;2023-01-08T10:17:41;8.29;92.24
64034;SHT31;50280;49.864;8.638;2023-01-08T10:20:22;8.33;92.08
64034;SHT31;50280;49.864;8.638;2023-01-08T10:23:08;8.33;92.06
64034;SHT31;50280;49.864;8.638;2023-01-08T10:25:49;8.36;92.02
64034;SHT31;50280;49.864;8.638;2023-01-08T10:28:26;8.34;91.86
64034;SHT31;50280;49.864;8.638;2023-01-08T10:31:03;8.37;91.72
64034;SHT31;50280;49.864;8.638;2023-01-08T10:33:40;8.42;91.67
64034;SHT31;50280;49.864;8.638;2023-01-08T10:36:22;8.41;91.33
64034;SHT31;50280;49.864;8.638;2023-01-08T10:38:58;8.45;91.35
64034;SHT31;50280;49.864;8.638;2023-01-08T10:41:36;8.45;91.48
64034;SHT31;50280;49.864;8.638;2023-01-08T10:44:15;8.47;91.24
64034;SHT31;50280;49.864;8.638;2023-01-08T10:46:52;8.52;90.96
64034;SHT31;50280;49.864;8.638;2023-01-08T10:49:32;8.57;90.73
64034;SHT31;50280;49.864;8.638;2023-01-08T10:52:23;8.61;90.74
64034;SHT31;50280;49.864;8.638;2023-01-08T10:55:12;8.65;90.75
64034;SHT31;50280;49.864;8.638;2023-01-08T10:57:56;8.69;90.75
64034;SHT31;50280;49.864;8.638;2023-01-08T11:00:33;8.75;90.69
64034;SHT31;50280;49.864;8.638;2023-01-08T11:03:19;8.76;90.26
64034;SHT31;50280;49.864;8.638;2023-01-08T11:06:09;8.83;90.17
64034;SHT31;50280;49.864;8.638;2023-01-08T11:08:50;8.88;89.90
64034;SHT31;50280;49.864;8.638;2023-01-08T11:11:31;8.99;89.74
64034;SHT31;50280;49.864;8.638;2023-01-08T11:14:16;9.17;88.98
64034;SHT31;50280;49.864;8.638;2023-01-08T11:16:56;9.34;88.91
64034;SHT31;50280;49.864;8.638;2023-01-08T11:19:31;9.48;88.44
64034;SHT31;50280;49.864;8.638;2023-01-08T11:22:16;9.58;87.63
64034;SHT31;50280;49.864;8.638;2023-01-08T11:24:53;9.69;87.08
64034;SHT31;50280;49.864;8.638;2023-01-08T11:27:29;9.76;86.16
64034;SHT31;50280;49.864;8.638;2023-01-08T11:30:11;9.75;85.73
64034;SHT31;50280;49.864;8.638;2023-01-08T11:32:53;9.76;86.51
64034;SHT31;50280;49.864;8.638;2023-01-08T11:35:37;9.78;86.49
64034;SHT31;50280;49.864;8.638;2023-01-08T11:38:17;9.82;85.97
64034;SHT31;50280;49.864;8.638;2023-01-08T11:40:56;9.81;86.12
64034;SHT31;50280;49.864;8.638;2023-01-08T11:44:10;9.75;85.87
64034;SHT31;50280;49.864;8.638;2023-01-08T11:47:03;9.68;85.91
64034;SHT31;50280;49.864;8.638;2023-01-08T11:50:05;9.68;85.29
64034;SHT31;50280;49.864;8.638;2023-01-08T11:53:06;9.72;85.41
64034;SHT31;50280;49.864;8.638;2023-01-08T11:56:04;9.81;84.91
64034;SHT31;50280;49.864;8.638;2023-01-08T11:58:57;9.83;84.84
64034;SHT31;50280;49.864;8.638;2023-01-08T12:01:52;9.86;84.25
64034;SHT31;50280;49.864;8.638;2023-01-08T12:08:06;9.92;84.58
64034;SHT31;50280;49.864;8.638;2023-01-08T12:11:01;9.86;84.53
64034;SHT31;50280;49.864;8.638;2023-01-08T12:13:58;9.79;84.64
64034;SHT31;50280;49.864;8.638;2023-01-08T12:16:56;9.72;84.52
64034;SHT31;50280;49.864;8.638;2023-01-08T12:19:59;9.72;84.77
64034;SHT31;50280;49.864;8.638;2023-01-08T12:22:55;9.68;85.07
64034;SHT31;50280;49.864;8.638;2023-01-08T12:26:05;9.72;85.21
64034;SHT31;50280;49.864;8.638;2023-01-08T12:29:17;9.74;84.75
64034;SHT31;50280;49.864;8.638;2023-01-08T12:32:18;9.78;84.80
64034;SHT31;50280;49.864;8.638;2023-01-08T12:35:00;9.83;84.45
64034;SHT31;50280;49.864;8.638;2023-01-08T12:37:47;9.82;84.07
64034;SHT31;50280;49.864;8.638;2023-01-08T12:40:31;9.85;84.26
64034;SHT31;50280;49.864;8.638;2023-01-08T12:43:10;9.87;83.96
64034;SHT31;50280;49.864;8.638;2023-01-08T12:45:51;9.90;84.25
64034;SHT31;50280;49.864;8.638;2023-01-08T12:48:32;9.92;84.27
64034;SHT31;50280;49.864;8.638;2023-01-08T12:51:09;9.92;84.29
64034;SHT31;50280;49.864;8.638;2023-01-08T12:53:55;9.92;83.90
64034;SHT31;50280;49.864;8.638;2023-01-08T12:56:45;9.87;83.91
64034;SHT31;50280;49.864;8.638;2023-01-08T12:59:35;9.85;83.93
64034;SHT31;50280;49.864;8.638;2023-01-08T13:02:24;9.86;84.16
64034;SHT31;50280;49.864;8.638;2023-01-08T13:05:29;9.83;84.27
64034;SHT31;50280;49.864;8.638;2023-01-08T13:08:07;9.81;84.37
64034;SHT31;50280;49.864;8.638;2023-01-08T13:10:59;9.82;84.38
64034;SHT31;50280;49.864;8.638;2023-01-08T13:13:35;9.83;84.38
64034;SHT31;50280;49.864;8.638;2023-01-08T13:16:20;9.81;84.54
64034;SHT31;50280;49.864;8.638;2023-01-08T13:18:54;9.83;84.37
64034;SHT31;50280;49.864;8.638;2023-01-08T13:21:34;9.83;84.45
64034;SHT31;50280;49.864;8.638;2023-01-08T13:24:24;9.85;84.62
64034;SHT31;50280;49.864;8.638;2023-01-08T13:27:19;9.89;84.39
64034;SHT31;50280;49.864;8.638;2023-01-08T13:29:59;9.89;84.09
64034;SHT31;50280;49.864;8.638;2023-01-08T13:32:43;9.93;84.05
64034;SHT31;50280;49.864;8.638;2023-01-08T13:35:20;9.93;83.70
64034;SHT31;50280;49.864;8.638;2023-01-08T13:38:14;9.95;83.29
64034;SHT31;50280;49.864;8.638;2023-01-08T13:40:52;9.96;83.64
64034;SHT31;50280;49.864;8.638;2023-01-08T13:43:28;9.95;83.23
64034;SHT31;50280;49.864;8.638;2023-01-08T13:46:13;9.95;83.61
64034;SHT31;50280;49.864;8.638;2023-01-08T13:48:56;9.92;83.26
64034;SHT31;50280;49.864;8.638;2023-01-08T13:51:40;9.93;83.22
64034;SHT31;50280;49.864;8.638;2023-01-08T13:54:30;9.92;83.43
64034;SHT31;50280;49.864;8.638;2023-01-08T13:57:12;9.92;83.48
64034;SHT31;50280;49.864;8.638;2023-01-08T13:59:50;10.00;83.23
64034;SHT31;50280;49.864;8.638;2023-01-08T14:02:28;9.99;83.44
64034;SHT31;50280;49.864;8.638;2023-01-08T14:05:19;10.03;83.18
64034;SHT31;50280;49.864;8.638;2023-01-08T14:07:56;10.04;83.02
64034;SHT31;50280;49.864;8.638;2023-01-08T14:10:29;10.04;82.95
64034;SHT31;50280;49.864;8.638;2023-01-08T14:13:06;10.06;82.79
64034;SHT31;50280;49.864;8.638;2023-01-08T14:15:42;10.03;82.87
64034;SHT31;50280;49.864;8.638;2023-01-08T14:18:15;10.02;82.78
64034;SHT31;50280;49.864;8.638;2023-01-08T14:20:51;10.04;82.87
64034;SHT31;50280;49.864;8.638;2023-01-08T14:23:26;10.03;83.06
64034;SHT31;50280;49.864;8.638;2023-01-08T14:26:06;10.03;83.29
64034;SHT31;50280;49.864;8.638;2023-01-08T14:28:52;10.02;83.80
64034;SHT31;50280;49.864;8.638;2023-01-08T14:31:26;9.99;83.96
64034;SHT31;50280;49.864;8.638;2023-01-08T14:33:59;9.96;83.86
64034;SHT31;50280;49.864;8.638;2023-01-08T14:36:34;9.93;84.24
64034;SHT31;50280;49.864;8.638;2023-01-08T14:39:09;9.90;84.41
64034;SHT31;50280;49.864;8.638;2023-01-08T14:41:42;9.89;84.59
64034;SHT31;50280;49.864;8.638;2023-01-08T14:44:15;9.86;84.59
64034;SHT31;50280;49.864;8.638;2023-01-08T14:46:48;9.85;84.87
64034;SHT31;50280;49.864;8.638;2023-01-08T14:49:24;9.85;84.84
64034;SHT31;50280;49.864;8.638;2023-01-08T14:52:01;9.85;84.95
64034;SHT31;50280;49.864;8.638;2023-01-08T14:54:35;9.87;84.98
64034;SHT31;50280;49.864;8.638;2023-01-08T14:57:10;9.86;84.83
64034;SHT31;50280;49.864;8.638;2023-01-08T14:59:49;9.86;85.00
64034;SHT31;50280;49.864;8.638;2023-01-08T15:02:29;9.85;85.06
64034;SHT31;50280;49.864;8.638;2023-01-08T15:05:15;9.82;84.85
64034;SHT31;50280;49.864;8.638;2023-01-08T15:08:00;9.82;84.80
64034;SHT31;50280;49.864;8.638;2023-01-08T15:10:38;9.85;84.73
64034;SHT31;50280;49.864;8.638;2023-01-08T15:13:23;9.86;84.72
64034;SHT31;50280;49.864;8.638;2023-01-08T15:16:07;9.96;84.30
64034;SHT31;50280;49.864;8.638;2023-01-08T15:18:47;9.96;84.10
64034;SHT31;50280;49.864;8.638;2023-01-08T15:21:33;9.99;83.73
64034;SHT31;50280;49.864;8.638;2023-01-08T15:24:20;9.97;83.68
64034;SHT31;50280;49.864;8.638;2023-01-08T15:26:57;9.93;83.65
64034;SHT31;50280;49.864;8.638;2023-01-08T15:29:31;9.92;83.74
64034;SHT31;50280;49.864;8.638;2023-01-08T15:32:08;9.86;83.67
64034;SHT31;50280;49.864;8.638;2023-01-08T15:34:44;9.83;83.79
64034;SHT31;50280;49.864;8.638;2023-01-08T15:37:17;9.79;83.94
64034;SHT31;50280;49.864;8.638;2023-01-08T15:39:51;9.78;83.95
64034;SHT31;50280;49.864;8.638;2023-01-08T15:42:27;9.74;83.79
64034;SHT31;50280;49.864;8.638;2023-01-08T15:45:03;9.71;83.98
64034;SHT31;50280;49.864;8.638;2023-01-08T15:47:41;9.69;83.99
64034;SHT31;50280;49.864;8.638;2023-01-08T15:50:14;9.68;83.95
64034;SHT31;50280;49.864;8.638;2023-01-08T15:52:47;9.67;83.80
64034;SHT31;50280;49.864;8.638;2023-01-08T15:55:22;9.68;83.86
64034;SHT31;50280;49.864;8.638;2023-01-08T15:57:56;9.65;83.58
64034;SHT31;50280;49.864;8.638;2023-01-08T16:00:31;9.63;83.55
64034;SHT31;50280;49.864;8.638;2023-01-08T16:03:04;9.62;83.46
64034;SHT31;50280;49.864;8.638;2023-01-08T16:05:37;9.62;83.40
64034;SHT31;50280;49.864;8.638;2023-01-08T16:08:10;9.58;83.23
64034;SHT31;50280;49.864;8.638;2023-01-08T16:10:43;9.58;83.35
64034;SHT31;50280;49.864;8.638;2023-01-08T16:13:16;9.59;83.08
64034;SHT31;50280;49.864;8.638;2023-01-08T16:15:49;9.58;83.07
64034;SHT31;50280;49.864;8.638;2023-01-08T16:18:21;9.58;83.04
64034;SHT31;50280;49.864;8.638;2023-01-08T16:20:58;9.58;82.87
64034;SHT31;50280;49.864;8.638;2023-01-08T16:23:32;9.58;82.71
64034;SHT31;50280;49.864;8.638;2023-01-08T16:26:09;9.57;82.82
64034;SHT31;50280;49.864;8.638;2023-01-08T16:28:44;9.55;82.58
64034;SHT31;50280;49.864;8.638;2023-01-08T16:31:16;9.57;82.28
64034;SHT31;50280;49.864;8.638;2023-01-08T16:33:49;9.59;82.29
64034;SHT31;50280;49.864;8.638;2023-01-08T16:36:21;9.61;82.52
64034;SHT31;50280;49.864;8.638;2023-01-08T16:38:54;9.61;82.47
64034;SHT31;50280;49.864;8.638;2023-01-08T16:41:28;9.59;82.32
64034;SHT31;50280;49.864;8.638;2023-01-08T16:44:01;9.58;82.36
64034;SHT31;50280;49.864;8.638;2023-01-08T16:46:33;9.58;82.18
64034;SHT31;50280;49.864;8.638;2023-01-08T16:49:06;9.61;82.10
64034;SHT31;50280;49.864;8.638;2023-01-08T16:51:39;9.61;82.05
64034;SHT31;50280;49.864;8.638;2023-01-08T16:54:12;9.62;81.87
64034;SHT31;50280;49.864;8.638;2023-01-08T16:56:47;9.65;81.67
64034;SHT31;50280;49.864;8.638;2023-01-08T16:59:19;9.69;81.34
64034;SHT31;50280;49.864;8.638;2023-01-08T17:01:52;9.71;81.37
64034;SHT31;50280;49.864;8.638;2023-01-08T17:04:25;9.71;81.22
64034;SHT31;50280;49.864;8.638;2023-01-08T17:07:00;9.76;81.14
64034;SHT31;50280;49.864;8.638;2023-01-08T17:09:32;9.75;80.98
64034;SHT31;50280;49.864;8.638;2023-01-08T17:12:06;9.78;80.90
64034;SHT31;50280;49.864;8.638;2023-01-08T17:14:39;9.78;80.70
64034;SHT31;50280;49.864;8.638;2023-01-08T17:17:11;9.82;80.73
64034;SHT31;50280;49.864;8.638;2023-01-08T17:19:44;9.81;80.51
64034;SHT31;50280;49.864;8.638;2023-01-08T17:22:16;9.81;80.67
64034;SHT31;50280;49.864;8.638;2023-01-08T17:24:49;9.81;80.64
64034;SHT31;50280;49.864;8.638;2023-01-08T17:27:23;9.82;80.78
64034;SHT31;50280;49.864;8.638;2023-01-08T17:29:55;9.82;80.83
64034;SHT31;50280;49.864;8.638;2023-01-08T17:32:28;9.82;81.02
64034;SHT31;50280;49.864;8.638;2023-01-08T17:35:01;9.81;81.12
64034;SHT31;50280;49.864;8.638;2023-01-08T17:37:34;9.82;81.25
64034;SHT31;50280;49.864;8.638;2023-01-08T17:40:08;9.81;81.26
64034;SHT31;50280;49.864;8.638;2023-01-08T17:42:43;9.82;81.33
64034;SHT31;50280;49.864;8.638;2023-01-08T17:45:16;9.76;81.36
64034;SHT31;50280;49.864;8.638;2023-01-08T17:47:48;9.76;81.13
64034;SHT31;50280;49.864;8.638;2023-01-08T17:50:21;9.78;80.96
64034;SHT31;50280;49.864;8.638;2023-01-08T17:52:53;9.72;81.05
64034;SHT31;50280;49.864;8.638;2023-01-08T17:55:28;9.72;81.08
64034;SHT31;50280;49.864;8.638;2023-01-08T17:58:02;9.67;81.03
64034;SHT31;50280;49.864;8.638;2023-01-08T18:00:34;9.67;81.13
64034;SHT31;50280;49.864;8.638;2023-01-08T18:03:07;9.63;81.20
64034;SHT31;50280;49.864;8.638;2023-01-08T18:05:39;9.58;81.15
64034;SHT31;50280;49.864;8.638;2023-01-08T18:08:12;9.55;81.20
64034;SHT31;50280;49.864;8.638;2023-01-08T18:10:44;9.57;81.37
64034;SHT31;50280;49.864;8.638;2023-01-08T18:13:18;9.51;81.45
64034;SHT31;50280;49.864;8.638;2023-01-08T18:15:50;9.47;81.56
64034;SHT31;50280;49.864;8.638;2023-01-08T18:18:23;9.44;81.59
64034;SHT31;50280;49.864;8.638;2023-01-08T18:20:55;9.40;81.72
64034;SHT31;50280;49.864;8.638;2023-01-08T18:23:28;9.38;81.77
64034;SHT31;50280;49.864;8.638;2023-01-08T18:26:05;9.35;81.80
64034;SHT31;50280;49.864;8.638;2023-01-08T18:28:41;9.35;81.60
64034;SHT31;50280;49.864;8.638;2023-01-08T18:31:14;9.37;81.78
64034;SHT31;50280;49.864;8.638;2023-01-08T18:33:48;9.37;81.63
64034;SHT31;50280;49.864;8.638;2023-01-08T18:36:22;9.37;81.52
64034;SHT31;50280;49.864;8.638;2023-01-08T18:38:55;9.41;81.46
64034;SHT31;50280;49.864;8.638;2023-01-08T18:41:28;9.42;81.38
64034;SHT31;50280;49.864;8.638;2023-01-08T18:44:04;9.44;81.31
64034;SHT31;50280;49.864;8.638;2023-01-08T18:46:38;9.42;81.24
64034;SHT31;50280;49.864;8.638;2023-01-08T18:49:11;9.47;80.87
64034;SHT31;50280;49.864;8.638;2023-01-08T18:51:43;9.47;80.79
64034;SHT31;50280;49.864;8.638;2023-01-08T18:54:16;9.47;80.59